Time;durP1;ratioP1;P1;durP2;ratioP2;P2;SDS_P1;SDS_P2;PMS_P1;PMS_P2;Temp;Humidity;BMP_temperature;BMP_pressure;BME280_temperature;BME280_humidity;BME280_pressure;Samples;Min_cycle;Max_cycle;Signal;HPM_P1;HPM_P2
2023/06/22 00:00:49;;;;;;;8.93;2.63;;;;;;;22.53;74.20;99681.13;5039656;28;20080;-74
2023/06/22 00:03:15;;;;;;;7.35;2.78;;;;;;;22.50;74.38;99689.38;5040916;28;20026;-76
2023/06/22 00:05:40;;;;;;;10.27;2.80;;;;;;;22.45;74.53;99704.88;5039561;28;20041;-76
2023/06/22 00:08:05;;;;;;;7.63;2.53;;;;;;;22.42;74.63;99702.38;5039618;28;20013;-76
2023/06/22 00:10:31;;;;;;;10.47;2.97;;;;;;;22.44;74.45;99698.66;5039618;28;20083;-76
2023/06/22 00:12:56;;;;;;;12.23;2.67;;;;;;;22.50;74.41;99698.28;5021766;28;20486;-76
2023/06/22 00:15:22;;;;;;;10.90;2.63;;;;;;;22.53;74.33;99693.69;5021306;28;20029;-76
2023/06/22 00:17:47;;;;;;;7.97;2.57;;;;;;;22.56;74.32;99689.00;5039260;28;20056;-76
2023/06/22 00:20:14;;;;;;;10.20;3.13;;;;;;;22.59;74.06;99686.13;5039371;28;20021;-76
2023/06/22 00:22:39;;;;;;;9.80;2.70;;;;;;;22.58;74.40;99687.06;5039255;28;20432;-76
2023/06/22 00:25:07;;;;;;;13.67;2.70;;;;;;;22.58;74.12;99694.25;5039096;28;20104;-76
2023/06/22 00:27:32;;;;;;;8.25;2.63;;;;;;;22.49;74.06;99696.56;5039269;28;20095;-76
2023/06/22 00:29:57;;;;;;;5.50;2.43;;;;;;;22.45;74.34;99699.50;5038883;28;20030;-76
2023/06/22 00:32:23;;;;;;;7.63;2.10;;;;;;;22.47;74.32;99714.59;5038876;28;20029;-76
2023/06/22 00:34:50;;;;;;;9.57;2.30;;;;;;;22.47;74.26;99716.38;5039195;28;20096;-76
2023/06/22 00:37:15;;;;;;;7.40;2.30;;;;;;;22.45;73.98;99712.91;5039373;28;20055;-76
2023/06/22 00:39:42;;;;;;;10.13;2.40;;;;;;;22.44;74.01;99719.25;5038950;28;20022;-76
2023/06/22 00:42:08;;;;;;;6.85;2.05;;;;;;;22.39;73.91;99738.28;5038340;28;20049;-76
2023/06/22 00:44:33;;;;;;;6.70;2.00;;;;;;;22.32;74.38;99743.19;5038770;28;20030;-76
2023/06/22 00:47:00;;;;;;;7.73;2.07;;;;;;;22.24;74.16;99761.56;5038573;28;20021;-77
2023/06/22 00:49:25;;;;;;;7.07;1.92;;;;;;;22.23;74.30;99757.16;5021378;28;20391;-76
2023/06/22 00:51:52;;;;;;;7.17;2.20;;;;;;;22.25;74.37;99757.94;5039445;28;20111;-76
2023/06/22 00:54:24;;;;;;;5.82;1.80;;;;;;;22.25;74.21;99765.97;5038613;28;20017;-76
2023/06/22 00:56:57;;;;;;;6.32;1.60;;;;;;;22.19;73.97;99774.41;5038657;28;20044;-76
2023/06/22 00:59:24;;;;;;;8.02;1.92;;;;;;;22.14;74.18;99771.97;5038696;28;20410;-76
2023/06/22 01:01:49;;;;;;;8.52;1.55;;;;;;;22.13;74.16;99780.97;5038537;28;20029;-76
2023/06/22 01:04:15;;;;;;;7.77;1.73;;;;;;;22.12;74.19;99779.25;5021727;28;20575;-76
2023/06/22 01:07:10;;;;;;;8.43;1.67;;;;;;;22.07;74.05;99779.56;5038590;28;20037;-76
2023/06/22 01:09:49;;;;;;;6.07;1.60;;;;;;;22.05;73.73;99778.75;5028594;28;20112;-76
2023/06/22 01:12:16;;;;;;;6.50;1.27;;;;;;;22.03;74.22;99775.31;5038300;28;20029;-76
2023/06/22 01:14:47;;;;;;;5.68;1.48;;;;;;;22.02;74.05;99786.16;5038175;28;20026;-76
2023/06/22 01:17:16;;;;;;;6.27;1.37;;;;;;;21.94;73.64;99794.63;5037899;28;20540;-76
2023/06/22 01:19:55;;;;;;;5.40;1.40;;;;;;;21.89;74.31;99799.41;5020390;28;20041;-76
2023/06/22 01:22:24;;;;;;;8.15;1.60;;;;;;;21.86;74.11;99800.44;5025932;28;20029;-76
2023/06/22 01:25:19;;;;;;;5.90;1.30;;;;;;;21.84;73.75;99813.06;5037974;28;20029;-76
2023/06/22 01:28:00;;;;;;;10.35;1.20;;;;;;;21.79;74.03;99813.34;5038261;28;20039;-76
2023/06/22 01:30:28;;;;;;;5.20;1.30;;;;;;;21.80;74.01;99815.06;5034404;28;20108;-76
2023/06/22 01:32:56;;;;;;;6.28;1.00;;;;;;;21.75;73.97;99819.84;5020435;28;20048;-76
2023/06/22 01:35:23;;;;;;;6.43;0.90;;;;;;;21.77;74.16;99828.63;5020215;28;20061;-76
2023/06/22 01:37:49;;;;;;;4.80;1.00;;;;;;;21.80;73.79;99832.97;5020234;28;20025;-76
2023/06/22 01:40:15;;;;;;;6.28;1.00;;;;;;;21.83;73.88;99840.84;5037965;28;20064;-76
2023/06/22 01:42:43;;;;;;;6.77;1.03;;;;;;;21.82;73.82;99835.53;5037731;28;20030;-76
2023/06/22 01:45:10;;;;;;;6.13;1.10;;;;;;;21.79;73.63;99829.41;5037736;28;20108;-76
2023/06/22 01:47:36;;;;;;;6.38;1.20;;;;;;;21.76;73.69;99847.50;5016833;28;20061;-75
2023/06/22 01:50:02;;;;;;;5.27;0.90;;;;;;;21.72;73.76;99846.81;5018076;28;20030;-75
2023/06/22 01:52:27;;;;;;;5.97;1.00;;;;;;;21.71;73.80;99845.09;5016713;28;20032;-75
2023/06/22 01:54:53;;;;;;;5.10;0.97;;;;;;;21.75;73.98;99852.00;5017027;28;20037;-75
2023/06/22 01:57:18;;;;;;;5.63;1.07;;;;;;;21.79;73.43;99848.19;5017652;28;20030;-75
2023/06/22 01:59:47;;;;;;;9.07;1.00;;;;;;;21.77;73.48;99844.72;5017751;28;20292;-75
2023/06/22 02:02:16;;;;;;;6.32;0.95;;;;;;;21.69;73.78;99857.72;5018754;28;20116;-75
2023/06/22 02:04:51;;;;;;;4.77;0.93;;;;;;;21.64;74.12;99859.75;5017749;28;20113;-75
2023/06/22 02:07:18;;;;;;;5.70;0.88;;;;;;;21.65;73.90;99861.53;5017925;28;20049;-75
2023/06/22 02:09:47;;;;;;;8.13;1.00;;;;;;;21.66;73.80;99852.53;5017715;28;20018;-75
2023/06/22 02:12:16;;;;;;;5.93;1.10;;;;;;;21.69;74.12;99857.72;5017521;28;20037;-75
2023/06/22 02:14:42;;;;;;;5.78;1.00;;;;;;;21.72;73.83;99859.38;5017458;28;20026;-75
2023/06/22 02:17:09;;;;;;;8.03;0.80;;;;;;;21.73;73.55;99864.63;5017247;28;20045;-75
2023/06/22 02:19:38;;;;;;;4.88;1.00;;;;;;;21.74;73.45;99876.22;5017480;28;20024;-75
2023/06/22 02:22:05;;;;;;;7.18;1.38;;;;;;;21.73;73.23;99886.06;5017487;28;20033;-74
2023/06/22 02:24:31;;;;;;;7.78;0.90;;;;;;;21.69;73.35;99879.16;5017487;28;20402;-75
2023/06/22 02:27:01;;;;;;;5.05;0.90;;;;;;;21.65;73.93;99886.50;5015739;28;20041;-75
2023/06/22 02:29:27;;;;;;;5.47;0.77;;;;;;;21.65;73.73;99896.34;5015867;28;20040;-75
2023/06/22 02:31:53;;;;;;;6.63;1.05;;;;;;;21.62;73.83;99893.81;5015942;28;20022;-75
2023/06/22 02:34:19;;;;;;;5.28;0.90;;;;;;;21.61;73.96;99894.78;5017292;28;20109;-75
2023/06/22 02:36:51;;;;;;;6.60;1.10;;;;;;;21.58;73.57;99889.56;5017062;28;20029;-75
2023/06/22 02:39:22;;;;;;;10.32;1.17;;;;;;;21.52;73.46;99894.31;5015847;28;20098;-75
2023/06/22 02:41:50;;;;;;;7.68;0.90;;;;;;;21.52;73.84;99899.69;5015755;28;20179;-75
2023/06/22 02:44:16;;;;;;;7.65;1.17;;;;;;;21.50;73.64;99906.94;5016871;28;20026;-75
2023/06/22 02:46:42;;;;;;;5.95;1.20;;;;;;;21.49;73.71;99904.38;5017108;28;20025;-75
2023/06/22 02:49:08;;;;;;;7.50;1.10;;;;;;;21.45;73.86;99909.00;5015489;28;20057;-74
2023/06/22 02:51:34;;;;;;;7.77;1.30;;;;;;;21.41;73.85;99898.53;5015952;28;20398;-75
2023/06/22 02:54:00;;;;;;;9.40;1.38;;;;;;;21.40;74.01;99886.97;5016963;28;20057;-75
2023/06/22 02:56:26;;;;;;;7.10;1.42;;;;;;;21.41;74.08;99885.16;5015656;28;20037;-75
2023/06/22 02:58:51;;;;;;;7.97;1.30;;;;;;;21.41;73.85;99871.75;5016608;28;20026;-75
2023/06/22 03:01:23;;;;;;;6.90;1.20;;;;;;;21.40;74.10;99862.00;5016965;28;20040;-75
2023/06/22 03:03:48;;;;;;;9.23;1.42;;;;;;;21.32;74.09;99859.75;5016714;28;20025;-75
2023/06/22 03:06:13;;;;;;;10.90;1.60;;;;;;;21.27;74.17;99872.53;5018936;28;20073;-75
2023/06/22 03:08:39;;;;;;;10.20;1.77;;;;;;;21.23;74.35;99877.22;5020968;28;20097;-75
2023/06/22 03:11:04;;;;;;;6.70;1.50;;;;;;;21.21;74.33;99901.38;5019599;28;20052;-75
2023/06/22 03:13:30;;;;;;;11.35;1.85;;;;;;;21.20;74.44;99904.13;5020701;28;20514;-75
2023/06/22 03:15:55;;;;;;;12.80;1.87;;;;;;;21.19;74.46;99908.63;5021149;28;20487;-75
2023/06/22 03:18:22;;;;;;;8.43;1.50;;;;;;;21.21;74.15;99911.22;5020369;28;20034;-75
2023/06/22 03:20:47;;;;;;;10.57;1.83;;;;;;;21.21;74.43;99911.22;5020933;28;20025;-74
2023/06/22 03:23:13;;;;;;;8.77;1.63;;;;;;;21.19;74.40;99911.31;5020623;28;20030;-75
2023/06/22 03:25:38;;;;;;;8.37;1.70;;;;;;;21.16;74.52;99903.44;5020918;28;20033;-75
2023/06/22 03:28:04;;;;;;;9.47;1.90;;;;;;;21.17;74.61;99906.97;5020334;28;20033;-75
2023/06/22 03:30:29;;;;;;;8.93;2.33;;;;;;;21.15;74.58;99906.19;5020492;28;20036;-75
2023/06/22 03:32:54;;;;;;;9.05;2.72;;;;;;;21.11;74.72;99910.88;5020559;28;20076;-76
2023/06/22 03:35:20;;;;;;;7.37;2.50;;;;;;;21.07;74.90;99922.66;5020652;28;20026;-75
2023/06/22 03:37:45;;;;;;;11.20;2.90;;;;;;;21.04;75.08;99920.16;5020374;28;20033;-75
2023/06/22 03:40:11;;;;;;;7.53;2.50;;;;;;;21.08;75.11;99919.03;5020476;28;20037;-75
2023/06/22 03:42:36;;;;;;;9.82;2.90;;;;;;;;;;5020138;28;20045;-75
2023/06/22 03:45:03;;;;;;;9.10;2.57;;;;;;;21.06;75.21;99920.94;5020249;28;20034;-75
2023/06/22 03:47:29;;;;;;;7.90;3.33;;;;;;;21.01;75.77;99936.38;5024392;28;20053;-75
2023/06/22 03:49:55;;;;;;;8.70;3.23;;;;;;;20.89;76.19;99922.72;5022331;28;20025;-75
2023/06/22 03:52:22;;;;;;;8.20;2.80;;;;;;;20.85;76.24;99915.78;5022136;28;20013;-75
2023/06/22 03:54:48;;;;;;;13.57;3.70;;;;;;;20.86;76.09;99916.66;5022171;28;20033;-75
2023/06/22 03:57:13;;;;;;;8.60;2.83;;;;;;;20.88;76.01;99910.28;5039602;28;20025;-75
2023/06/22 03:59:38;;;;;;;8.37;2.43;;;;;;;20.92;76.22;99895.78;5039698;28;20033;-75
2023/06/22 04:02:04;;;;;;;14.90;3.00;;;;;;;20.98;76.04;99889.25;5039939;28;20073;-75
2023/06/22 04:04:29;;;;;;;6.50;2.87;;;;;;;21.01;75.85;99885.53;5040839;28;20477;-75
2023/06/22 04:06:55;;;;;;;8.70;2.90;;;;;;;21.02;75.81;99897.97;5039676;28;20447;-75
2023/06/22 04:09:21;;;;;;;12.13;3.60;;;;;;;21.04;75.98;99904.97;5040218;28;20155;-75
2023/06/22 04:11:47;;;;;;;12.38;2.90;;;;;;;21.03;76.26;99902.38;5022037;28;20065;-75
2023/06/22 04:14:12;;;;;;;14.50;3.10;;;;;;;21.03;75.82;99911.28;5039611;28;20056;-75
2023/06/22 04:16:38;;;;;;;9.48;2.88;;;;;;;21.06;76.10;99903.06;5039121;28;20036;-75
2023/06/22 04:19:03;;;;;;;8.80;3.10;;;;;;;21.09;76.04;99907.38;5038576;28;20516;-75
2023/06/22 04:21:29;;;;;;;10.30;3.30;;;;;;;21.12;75.61;99891.19;5021835;28;20083;-75
2023/06/22 04:23:54;;;;;;;8.60;3.07;;;;;;;21.13;75.53;99887.56;5021861;28;20021;-75
2023/06/22 04:26:20;;;;;;;8.20;2.85;;;;;;;21.13;76.04;99887.56;5039620;28;20032;-75
2023/06/22 04:28:51;;;;;;;13.10;3.17;;;;;;;21.14;76.08;99897.31;5026167;28;20104;-76
2023/06/22 04:31:17;;;;;;;10.65;3.40;;;;;;;21.12;75.83;99909.03;5021702;28;20363;-75
2023/06/22 04:33:42;;;;;;;7.88;3.70;;;;;;;21.06;76.19;99912.91;5021757;28;20040;-75
2023/06/22 04:36:08;;;;;;;9.67;3.47;;;;;;;21.04;75.71;99925.50;5039310;28;20024;-75
2023/06/22 04:38:33;;;;;;;8.67;3.77;;;;;;;20.97;76.35;99940.19;5039192;28;20436;-75
2023/06/22 04:41:01;;;;;;;10.93;4.57;;;;;;;20.89;76.31;99960.19;5038985;28;20032;-75
2023/06/22 04:43:30;;;;;;;10.67;5.07;;;;;;;20.80;76.78;99971.34;5021294;28;20036;-76
2023/06/22 04:45:56;;;;;;;14.10;4.80;;;;;;;20.76;76.79;99967.97;5039002;28;20017;-75
2023/06/22 04:48:21;;;;;;;13.50;4.90;;;;;;;20.76;76.88;99969.75;5020919;28;20044;-75
2023/06/22 04:50:47;;;;;;;12.77;4.60;;;;;;;20.75;76.94;99968.91;5038895;28;20902;-75
2023/06/22 04:53:12;;;;;;;12.30;5.13;;;;;;;20.76;76.91;99975.09;5021007;28;20033;-75
2023/06/22 04:55:41;;;;;;;15.52;5.35;;;;;;;20.81;76.30;99973.09;5038596;28;20029;-75
2023/06/22 04:58:07;;;;;;;12.32;5.28;;;;;;;20.86;76.63;99967.50;5038417;28;20084;-75
2023/06/22 05:00:35;;;;;;;11.50;5.03;;;;;;;20.90;76.10;99958.38;5038516;28;20528;-73
2023/06/22 05:03:03;;;;;;;12.10;5.25;;;;;;;20.93;76.30;99951.03;5021915;28;20044;-75
2023/06/22 05:05:28;;;;;;;10.77;5.20;;;;;;;20.99;76.27;99949.00;5038593;28;20032;-72
2023/06/22 05:08:00;;;;;;;12.30;6.13;;;;;;;21.01;75.90;99944.41;5038663;28;20029;-74
2023/06/22 05:10:26;;;;;;;14.55;5.47;;;;;;;21.01;76.01;99944.41;5020906;28;20509;-74
2023/06/22 05:12:52;;;;;;;11.43;5.30;;;;;;;21.03;75.96;99945.19;5038355;28;20029;-75
2023/06/22 05:15:19;;;;;;;11.83;5.43;;;;;;;21.05;75.96;99938.81;5038125;28;20195;-73
2023/06/22 05:17:45;;;;;;;10.52;5.55;;;;;;;21.09;76.03;99934.16;5035710;28;20025;-75
2023/06/22 05:20:11;;;;;;;10.40;5.47;;;;;;;21.13;75.69;99935.75;5019735;28;20101;-74
2023/06/22 05:22:37;;;;;;;12.03;5.33;;;;;;;21.16;75.84;99940.06;5038200;28;20478;-74
2023/06/22 05:25:02;;;;;;;11.68;5.80;;;;;;;21.16;76.18;99946.28;5037960;28;20458;-74
2023/06/22 05:27:27;;;;;;;13.80;6.43;;;;;;;21.15;76.00;99949.03;5020256;28;20040;-73
2023/06/22 05:29:53;;;;;;;14.20;6.60;;;;;;;21.11;75.93;99953.72;5019867;28;20063;-74
2023/06/22 05:32:18;;;;;;;13.40;5.82;;;;;;;21.12;75.76;99957.22;5030879;28;20035;-73
2023/06/22 05:34:44;;;;;;;16.53;6.60;;;;;;;21.09;75.99;99960.94;5019225;28;20554;-73
2023/06/22 05:37:09;;;;;;;15.13;6.70;;;;;;;21.04;76.47;99969.22;5037755;28;20055;-73
2023/06/22 05:39:37;;;;;;;15.60;7.57;;;;;;;21.01;76.38;99973.84;5018342;28;20088;-72
2023/06/22 05:42:04;;;;;;;14.68;7.10;;;;;;;20.97;76.48;99977.66;5032915;28;20473;-73
2023/06/22 05:44:30;;;;;;;17.90;6.85;;;;;;;20.94;76.70;99979.53;5033269;28;20056;-72
2023/06/22 05:46:55;;;;;;;15.53;7.50;;;;;;;20.93;76.80;99990.31;5037621;28;20057;-72
2023/06/22 05:49:22;;;;;;;16.47;7.60;;;;;;;20.86;77.15;99995.16;5037611;28;20132;-72
2023/06/22 05:51:47;;;;;;;13.93;7.20;;;;;;;20.82;77.12;100006.91;5032465;28;20473;-71
2023/06/22 05:54:15;;;;;;;16.17;7.50;;;;;;;20.79;77.67;100009.72;5031528;28;20044;-71
2023/06/22 05:56:41;;;;;;;14.77;7.10;;;;;;;20.75;77.61;100010.84;5033478;28;20043;-72
2023/06/22 05:59:06;;;;;;;14.27;7.78;;;;;;;20.74;77.75;100009.09;5019338;28;20120;-71
2023/06/22 06:01:34;;;;;;;19.57;8.07;;;;;;;20.74;77.49;100011.78;5037365;28;20040;-71
2023/06/22 06:04:00;;;;;;;16.35;7.60;;;;;;;20.80;77.09;100006.13;5038586;28;20021;-73
2023/06/22 06:06:28;;;;;;;16.07;7.33;;;;;;;20.85;77.50;100006.75;5020063;28;20037;-73
2023/06/22 06:08:53;;;;;;;16.55;8.20;;;;;;;20.90;77.28;100012.78;5037250;28;20096;-70
2023/06/22 06:11:19;;;;;;;15.97;7.17;;;;;;;20.96;77.19;100022.28;5037220;28;20052;-72
2023/06/22 06:13:45;;;;;;;17.57;7.47;;;;;;;21.01;76.96;100019.38;5037097;28;20441;-72
2023/06/22 06:16:10;;;;;;;15.55;7.32;;;;;;;21.09;76.94;100014.47;5032994;28;20109;-73
2023/06/22 06:18:37;;;;;;;14.18;6.95;;;;;;;21.14;76.79;100025.81;5036480;28;20030;-73
2023/06/22 06:21:03;;;;;;;15.27;7.27;;;;;;;21.19;77.01;100028.25;5036895;28;20036;-72
2023/06/22 06:23:28;;;;;;;21.02;7.80;;;;;;;21.21;76.79;100032.59;5037107;28;20030;-74
2023/06/22 06:25:54;;;;;;;19.07;8.03;;;;;;;21.21;76.86;100031.72;5037206;28;20033;-75
2023/06/22 06:28:19;;;;;;;15.60;8.67;;;;;;;21.14;77.44;100020.47;5036822;28;20112;-73
2023/06/22 06:30:47;;;;;;;17.23;7.68;;;;;;;21.17;76.92;100024.78;5037076;28;20083;-73
2023/06/22 06:33:12;;;;;;;16.87;6.77;;;;;;;21.23;76.95;100028.00;5036908;28;20112;-73
2023/06/22 06:35:38;;;;;;;18.95;7.07;;;;;;;21.26;77.10;100036.84;5037239;28;20055;-73
2023/06/22 06:38:03;;;;;;;12.27;6.30;;;;;;;21.31;76.90;100040.13;5036849;28;20040;-73
2023/06/22 06:40:28;;;;;;;15.33;5.63;;;;;;;21.39;76.84;100042.41;5036153;28;20036;-73
2023/06/22 06:42:54;;;;;;;14.88;6.85;;;;;;;21.49;76.50;100049.88;5019111;28;20083;-73
2023/06/22 06:45:25;;;;;;;12.70;6.33;;;;;;;21.54;76.17;100046.97;5036974;28;20470;-73
2023/06/22 06:47:52;;;;;;;12.63;6.13;;;;;;;21.61;76.32;100052.84;5036652;28;20053;-73
2023/06/22 06:50:18;;;;;;;14.63;6.03;;;;;;;21.64;76.37;100047.34;5037007;28;20128;-73
2023/06/22 06:52:43;;;;;;;9.80;5.60;;;;;;;21.65;76.59;100046.41;5019038;28;20398;-73
2023/06/22 06:55:12;;;;;;;13.50;5.47;;;;;;;21.71;76.47;100054.13;5036662;28;20076;-73
2023/06/22 06:57:39;;;;;;;11.43;4.90;;;;;;;21.73;75.95;100054.91;5018677;28;20025;-73
2023/06/22 07:00:13;;;;;;;10.07;4.47;;;;;;;21.73;75.55;100051.38;5036819;28;20057;-73
2023/06/22 07:02:41;;;;;;;9.02;4.50;;;;;;;21.75;75.45;100050.31;5037740;28;20478;-73
2023/06/22 07:05:07;;;;;;;11.93;4.55;;;;;;;21.82;75.67;100052.66;5036830;28;20036;-73
2023/06/22 07:07:32;;;;;;;11.65;4.50;;;;;;;21.96;75.81;100059.97;5018675;28;20060;-73
2023/06/22 07:09:58;;;;;;;8.93;3.80;;;;;;;22.04;75.13;100049.66;5034090;28;20374;-73
2023/06/22 07:12:24;;;;;;;10.50;3.72;;;;;;;22.08;75.14;100062.84;5036669;28;20029;-73
2023/06/22 07:14:50;;;;;;;8.40;3.20;;;;;;;22.13;74.89;100069.75;5018845;28;20116;-73
2023/06/22 07:17:15;;;;;;;7.82;3.55;;;;;;;22.14;74.50;100072.31;5036089;28;20025;-73
2023/06/22 07:19:42;;;;;;;8.17;3.33;;;;;;;22.15;74.67;100086.63;5036668;28;20033;-73
2023/06/22 07:22:07;;;;;;;9.20;3.65;;;;;;;22.17;74.19;100079.34;5036671;28;20113;-73
2023/06/22 07:24:32;;;;;;;9.10;3.17;;;;;;;22.15;74.13;100091.97;5036502;28;20061;-73
2023/06/22 07:26:58;;;;;;;9.00;3.30;;;;;;;22.11;73.54;100083.22;5036549;28;20037;-73
2023/06/22 07:29:24;;;;;;;7.50;3.00;;;;;;;22.11;73.97;100085.06;5036446;28;20053;-73
2023/06/22 07:31:51;;;;;;;6.18;2.90;;;;;;;22.09;73.98;100087.81;5036343;28;20060;-73
2023/06/22 07:34:17;;;;;;;7.25;2.92;;;;;;;22.12;73.98;100090.31;5036531;28;20025;-73
2023/06/22 07:36:43;;;;;;;6.73;3.03;;;;;;;22.18;73.77;100091.81;5036413;28;20071;-73
2023/06/22 07:39:08;;;;;;;9.13;3.17;;;;;;;22.23;73.91;100095.09;5018844;28;20551;-73
2023/06/22 07:41:34;;;;;;;7.10;2.87;;;;;;;22.22;73.31;100101.41;5036235;28;20029;-73
2023/06/22 07:43:59;;;;;;;7.78;3.03;;;;;;;22.21;72.94;100099.69;5018376;28;20401;-73
2023/06/22 07:46:24;;;;;;;8.30;2.67;;;;;;;22.24;72.58;100110.22;5018578;28;20056;-73
2023/06/22 07:48:50;;;;;;;9.70;2.63;;;;;;;22.32;72.17;100105.31;5036201;28;20319;-72
2023/06/22 07:51:15;;;;;;;10.80;2.80;;;;;;;22.46;72.08;100107.25;5018800;28;20037;-73
2023/06/22 07:53:42;;;;;;;5.90;2.42;;;;;;;22.51;71.36;100113.22;5040178;28;20034;-72
2023/06/22 07:56:10;;;;;;;7.03;2.13;;;;;;;22.48;70.81;100113.41;5039844;28;20099;-71
2023/06/22 07:58:36;;;;;;;6.57;2.50;;;;;;;22.49;70.92;100119.63;5039727;28;20021;-71
2023/06/22 08:01:02;;;;;;;6.20;2.10;;;;;;;22.48;70.31;100118.78;5039726;28;20108;-72
2023/06/22 08:03:27;;;;;;;6.97;2.20;;;;;;;22.56;70.21;100123.72;5023017;28;20032;-72
2023/06/22 08:05:52;;;;;;;5.43;2.07;;;;;;;22.80;70.01;100123.25;5039782;28;20489;-71
2023/06/22 08:08:18;;;;;;;5.77;2.40;;;;;;;22.96;69.55;100111.63;5038618;28;20332;-71
2023/06/22 08:10:43;;;;;;;5.40;2.50;;;;;;;23.01;68.98;100118.44;5038140;28;20037;-72
2023/06/22 08:13:10;;;;;;;6.97;2.00;;;;;;;23.05;68.72;100105.72;5039394;28;20022;-71
2023/06/22 08:15:35;;;;;;;5.65;2.17;;;;;;;23.07;68.82;100119.91;5039557;28;20098;-71
2023/06/22 08:18:01;;;;;;;6.33;2.30;;;;;;;23.08;68.60;100118.97;5039471;28;20061;-72
2023/06/22 08:20:26;;;;;;;6.30;2.30;;;;;;;23.03;68.59;100129.09;5039403;28;20108;-72
2023/06/22 08:22:54;;;;;;;7.47;2.90;;;;;;;22.91;68.64;100126.19;5021734;28;20033;-72
2023/06/22 08:25:20;;;;;;;6.70;2.20;;;;;;;22.82;68.76;100142.81;5039422;28;20108;-72
2023/06/22 08:27:47;;;;;;;5.75;2.20;;;;;;;22.67;69.43;100139.22;5021678;28;20021;-72
2023/06/22 08:30:13;;;;;;;6.57;2.40;;;;;;;22.53;69.52;100150.69;5039230;28;20021;-71
2023/06/22 08:32:38;;;;;;;5.93;2.40;;;;;;;22.40;70.27;100152.31;5039583;28;20036;-72
2023/06/22 08:35:05;;;;;;;5.87;2.43;;;;;;;22.33;70.59;100160.72;5021591;28;20025;-72
2023/06/22 08:37:31;;;;;;;8.37;2.90;;;;;;;22.25;71.14;100165.59;5039695;28;20822;-72
2023/06/22 08:40:01;;;;;;;7.13;2.33;;;;;;;22.12;71.52;100167.25;5021651;28;20033;-72
2023/06/22 08:42:27;;;;;;;8.00;2.60;;;;;;;22.05;71.97;100170.22;5039307;28;20036;-71
2023/06/22 08:44:53;;;;;;;5.95;2.58;;;;;;;21.94;72.49;100168.16;5038782;28;20029;-71
2023/06/22 08:47:19;;;;;;;6.45;2.35;;;;;;;21.87;72.68;100168.56;5021130;28;20114;-72
2023/06/22 08:49:44;;;;;;;7.60;2.90;;;;;;;21.75;73.47;100175.44;5039052;28;20030;-71
2023/06/22 08:52:09;;;;;;;8.30;2.90;;;;;;;21.68;73.78;100182.03;5039103;28;20033;-71
2023/06/22 08:54:35;;;;;;;9.30;3.20;;;;;;;21.61;73.94;100182.31;5038901;28;20056;-70
2023/06/22 08:57:02;;;;;;;7.27;3.23;;;;;;;21.59;74.33;100192.25;5038861;28;20600;-70
2023/06/22 08:59:27;;;;;;;7.25;3.00;;;;;;;21.64;74.42;100184.88;5038415;28;20106;-71
2023/06/22 09:01:53;;;;;;;7.23;3.00;;;;;;;21.71;74.26;100182.75;5038767;28;20033;-71
2023/06/22 09:04:18;;;;;;;6.25;2.30;;;;;;;21.70;74.38;100194.41;5039620;28;20033;-71
2023/06/22 09:06:46;;;;;;;7.33;3.23;;;;;;;21.70;74.98;100196.22;5038697;28;20401;-71
2023/06/22 09:09:12;;;;;;;7.38;3.03;;;;;;;21.68;74.93;100204.34;5038502;28;20486;-71
2023/06/22 09:11:38;;;;;;;7.57;2.80;;;;;;;21.70;74.61;100202.47;5038775;28;20033;-71
2023/06/22 09:14:04;;;;;;;8.27;2.95;;;;;;;21.73;74.99;100206.81;5038342;28;20029;-71
2023/06/22 09:16:29;;;;;;;5.90;2.87;;;;;;;21.75;74.99;100205.75;5038588;28;20112;-72
2023/06/22 09:18:55;;;;;;;6.47;2.72;;;;;;;21.79;74.81;100206.47;5038244;28;20029;-71
2023/06/22 09:21:20;;;;;;;7.60;3.10;;;;;;;21.86;75.17;100201.66;5038493;28;20033;-71
2023/06/22 09:23:50;;;;;;;7.28;2.92;;;;;;;21.92;74.81;100206.72;5038390;28;20025;-71
2023/06/22 09:26:15;;;;;;;7.07;3.13;;;;;;;21.96;74.91;100204.75;5020763;28;20040;-71
2023/06/22 09:28:41;;;;;;;10.02;3.00;;;;;;;21.97;74.71;100207.31;5038026;28;20030;-71
2023/06/22 09:31:06;;;;;;;6.63;2.73;;;;;;;21.97;74.84;100210.00;5038130;28;20068;-71
2023/06/22 09:33:32;;;;;;;6.27;3.10;;;;;;;22.02;74.72;100210.63;5038275;28;20529;-71
2023/06/22 09:35:57;;;;;;;7.40;2.92;;;;;;;22.09;74.75;100208.50;5038298;28;20101;-71
2023/06/22 09:38:22;;;;;;;6.80;2.73;;;;;;;22.12;74.82;100212.84;5037998;28;20490;-71
2023/06/22 09:40:48;;;;;;;5.83;2.70;;;;;;;22.17;74.50;100205.41;5038134;28;20025;-71
2023/06/22 09:43:13;;;;;;;6.33;2.70;;;;;;;22.23;74.48;100215.78;5037669;28;20383;-71
2023/06/22 09:45:39;;;;;;;6.90;3.10;;;;;;;22.28;74.32;100208.34;5037936;28;20026;-71
2023/06/22 09:48:04;;;;;;;8.13;2.83;;;;;;;22.29;74.29;100209.25;5037791;28;20875;-71
2023/06/22 09:50:30;;;;;;;7.33;3.10;;;;;;;22.33;74.40;100213.47;5038025;28;20026;-71
2023/06/22 09:52:55;;;;;;;7.00;2.87;;;;;;;22.36;74.42;100214.19;5019964;28;20501;-71
2023/06/22 09:55:21;;;;;;;7.25;3.08;;;;;;;22.60;74.01;100212.94;5037746;28;20029;-71
2023/06/22 09:57:47;;;;;;;8.73;2.80;;;;;;;23.03;73.37;100202.47;5037575;28;20482;-71
2023/06/22 10:00:14;;;;;;;6.72;3.10;;;;;;;23.46;72.75;100212.56;5037793;28;20095;-71
2023/06/22 10:02:41;;;;;;;7.05;3.17;;;;;;;23.84;71.90;100199.63;5038722;28;20025;-71
2023/06/22 10:05:07;;;;;;;9.37;3.07;;;;;;;23.89;70.59;100202.88;5019832;28;20461;-71
2023/06/22 10:07:33;;;;;;;6.72;3.00;;;;;;;23.96;70.79;100206.06;5037726;28;20077;-71
2023/06/22 10:09:58;;;;;;;6.47;3.10;;;;;;;24.02;70.00;100203.91;5000211;28;20526;-72
2023/06/22 10:12:23;;;;;;;7.15;2.88;;;;;;;24.19;70.08;100204.66;5036474;28;20405;-72
2023/06/22 10:14:49;;;;;;;7.77;2.97;;;;;;;24.28;69.75;100198.72;5036869;28;20048;-71
2023/06/22 10:17:14;;;;;;;7.07;2.70;;;;;;;24.30;68.81;100204.88;5036622;28;20104;-71
2023/06/22 10:19:41;;;;;;;8.00;2.67;;;;;;;24.30;68.45;100202.19;5037566;28;20389;-71
2023/06/22 10:22:06;;;;;;;7.50;3.10;;;;;;;24.49;68.81;100203.72;5037322;28;20048;-71
2023/06/22 10:24:32;;;;;;;6.40;2.60;;;;;;;24.61;68.34;100211.00;5037368;28;20034;-71
2023/06/22 10:26:57;;;;;;;5.67;2.77;;;;;;;24.66;66.84;100208.88;5019576;28;20028;-71
2023/06/22 10:29:23;;;;;;;6.90;2.43;;;;;;;24.91;67.11;100206.47;5037199;28;20296;-72
2023/06/22 10:31:48;;;;;;;5.77;2.70;;;;;;;25.13;66.50;100205.91;5019202;28;20160;-72
2023/06/22 10:34:13;;;;;;;6.83;3.20;;;;;;;25.32;66.44;100210.94;5037355;28;20032;-72
2023/06/22 10:36:39;;;;;;;9.73;2.80;;;;;;;25.50;65.44;100211.56;5037116;28;20029;-72
2023/06/22 10:39:05;;;;;;;5.22;2.33;;;;;;;25.60;65.08;100214.50;5036991;28;20033;-72
2023/06/22 10:41:31;;;;;;;6.55;2.80;;;;;;;25.55;64.48;100213.06;5036910;28;20029;-72
2023/06/22 10:43:56;;;;;;;9.43;2.80;;;;;;;25.40;65.42;100210.41;5036977;28;20021;-72
2023/06/22 10:46:23;;;;;;;7.57;2.80;;;;;;;25.30;65.39;100222.78;5036880;28;20036;-72
2023/06/22 10:48:49;;;;;;;7.28;2.63;;;;;;;25.20;65.58;100231.50;5036813;28;20072;-72
2023/06/22 10:51:14;;;;;;;7.30;2.47;;;;;;;25.13;65.83;100232.84;5036821;28;20056;-72
2023/06/22 10:53:40;;;;;;;5.15;2.47;;;;;;;24.94;64.27;100241.28;5019166;28;20120;-72
2023/06/22 10:56:05;;;;;;;6.37;2.67;;;;;;;24.79;64.80;100245.81;5036781;28;20021;-72
2023/06/22 10:58:30;;;;;;;7.27;2.50;;;;;;;24.62;65.74;100242.34;5036729;28;20494;-72
2023/06/22 11:00:56;;;;;;;9.70;2.67;;;;;;;24.53;65.59;100242.94;5036704;28;20033;-72
2023/06/22 11:03:21;;;;;;;6.20;2.80;;;;;;;24.41;65.67;100241.88;5037926;28;20057;-72
2023/06/22 11:05:47;;;;;;;6.88;2.55;;;;;;;24.52;65.55;100241.22;5036693;28;20037;-72
2023/06/22 11:08:13;;;;;;;5.47;2.40;;;;;;;24.91;65.82;100244.16;5019066;28;20504;-72
2023/06/22 11:10:38;;;;;;;6.03;2.67;;;;;;;25.23;65.46;100242.06;5036742;28;20037;-72
2023/06/22 11:13:05;;;;;;;5.83;2.47;;;;;;;25.38;64.75;100236.59;5036536;28;20029;-72
2023/06/22 11:15:30;;;;;;;5.80;2.25;;;;;;;25.46;64.21;100238.78;5018806;28;20438;-72
2023/06/22 11:17:55;;;;;;;5.57;2.40;;;;;;;25.68;63.76;100235.50;5036679;28;20060;-71
2023/06/22 11:20:21;;;;;;;5.37;2.27;;;;;;;25.78;64.16;100239.31;5018820;28;20108;-72
2023/06/22 11:22:47;;;;;;;8.03;2.20;;;;;;;25.84;63.83;100232.66;5036872;28;20025;-72